sensor_id;sensor_type;location;lat;lon;timestamp;temperature;humidity
46041;DHT22;31779;49.124;19.190;2022-07-29T00:00:16;14.70;99.90
46041;DHT22;31779;49.124;19.190;2022-07-29T00:02:44;14.70;99.90
46041;DHT22;31779;49.124;19.190;2022-07-29T00:05:11;14.60;99.90
46041;DHT22;31779;49.124;19.190;2022-07-29T00:07:41;14.60;99.90
46041;DHT22;31779;49.124;19.190;2022-07-29T00:10:08;14.60;99.90
46041;DHT22;31779;49.124;19.190;2022-07-29T00:12:36;14.50;99.90
46041;DHT22;31779;49.124;19.190;2022-07-29T00:15:05;14.60;99.90
46041;DHT22;31779;49.124;19.190;2022-07-29T00:17:32;14.60;99.90
46041;DHT22;31779;49.124;19.190;2022-07-29T00:20:01;14.50;99.90
46041;DHT22;31779;49.124;19.190;2022-07-29T00:22:28;14.50;99.90
46041;DHT22;31779;49.124;19.190;2022-07-29T00:24:56;14.50;99.90
46041;DHT22;31779;49.124;19.190;2022-07-29T00:27:24;14.50;99.90
46041;DHT22;31779;49.124;19.190;2022-07-29T00:29:51;14.40;99.90
46041;DHT22;31779;49.124;19.190;2022-07-29T00:32:19;14.40;99.90
46041;DHT22;31779;49.124;19.190;2022-07-29T00:34:46;14.30;99.90
46041;DHT22;31779;49.124;19.190;2022-07-29T00:37:32;14.40;99.90
46041;DHT22;31779;49.124;19.190;2022-07-29T00:40:00;14.40;99.90
46041;DHT22;31779;49.124;19.190;2022-07-29T00:42:28;14.40;99.90
46041;DHT22;31779;49.124;19.190;2022-07-29T00:44:55;14.30;99.90
46041;DHT22;31779;49.124;19.190;2022-07-29T00:47:23;14.30;99.90
46041;DHT22;31779;49.124;19.190;2022-07-29T00:49:51;14.30;99.90
46041;DHT22;31779;49.124;19.190;2022-07-29T00:52:18;14.20;99.90
46041;DHT22;31779;49.124;19.190;2022-07-29T00:54:46;14.20;99.90
46041;DHT22;31779;49.124;19.190;2022-07-29T00:57:14;14.30;99.90
46041;DHT22;31779;49.124;19.190;2022-07-29T00:59:41;14.30;99.90
46041;DHT22;31779;49.124;19.190;2022-07-29T01:02:09;14.20;99.90
46041;DHT22;31779;49.124;19.190;2022-07-29T01:04:37;14.20;99.90
46041;DHT22;31779;49.124;19.190;2022-07-29T01:07:05;14.20;99.90
46041;DHT22;31779;49.124;19.190;2022-07-29T01:09:33;14.20;99.90
46041;DHT22;31779;49.124;19.190;2022-07-29T01:12:34;14.20;99.90
46041;DHT22;31779;49.124;19.190;2022-07-29T01:15:01;14.20;99.90
46041;DHT22;31779;49.124;19.190;2022-07-29T01:20:24;14.20;99.90
46041;DHT22;31779;49.124;19.190;2022-07-29T01:30:30;14.30;99.90
46041;DHT22;31779;49.124;19.190;2022-07-29T01:33:02;14.40;99.90
46041;DHT22;31779;49.124;19.190;2022-07-29T01:35:38;14.40;99.90
46041;DHT22;31779;49.124;19.190;2022-07-29T01:38:17;14.40;99.90
46041;DHT22;31779;49.124;19.190;2022-07-29T01:40:49;14.50;99.90
46041;DHT22;31779;49.124;19.190;2022-07-29T01:43:20;14.50;99.90
46041;DHT22;31779;49.124;19.190;2022-07-29T01:46:09;14.50;99.90
46041;DHT22;31779;49.124;19.190;2022-07-29T01:48:48;14.40;99.90
46041;DHT22;31779;49.124;19.190;2022-07-29T01:51:20;14.50;99.90
46041;DHT22;31779;49.124;19.190;2022-07-29T01:53:55;14.40;99.90
46041;DHT22;31779;49.124;19.190;2022-07-29T01:56:27;14.50;99.90
46041;DHT22;31779;49.124;19.190;2022-07-29T01:58:58;14.60;99.90
46041;DHT22;31779;49.124;19.190;2022-07-29T02:01:26;14.60;99.90
46041;DHT22;31779;49.124;19.190;2022-07-29T02:03:54;14.60;99.90
46041;DHT22;31779;49.124;19.190;2022-07-29T02:06:22;14.60;99.90
46041;DHT22;31779;49.124;19.190;2022-07-29T02:08:51;14.60;99.90
46041;DHT22;31779;49.124;19.190;2022-07-29T02:11:20;14.50;99.90
46041;DHT22;31779;49.124;19.190;2022-07-29T02:13:47;14.50;99.90
46041;DHT22;31779;49.124;19.190;2022-07-29T02:16:16;14.50;99.90
46041;DHT22;31779;49.124;19.190;2022-07-29T02:18:46;14.50;99.90
46041;DHT22;31779;49.124;19.190;2022-07-29T02:21:16;14.50;99.90
46041;DHT22;31779;49.124;19.190;2022-07-29T02:23:47;14.50;99.90
46041;DHT22;31779;49.124;19.190;2022-07-29T02:26:18;14.50;99.90
46041;DHT22;31779;49.124;19.190;2022-07-29T02:28:47;14.50;99.90
46041;DHT22;31779;49.124;19.190;2022-07-29T02:31:14;14.60;99.90
46041;DHT22;31779;49.124;19.190;2022-07-29T02:33:43;14.60;99.90
46041;DHT22;31779;49.124;19.190;2022-07-29T02:36:11;14.70;99.90
46041;DHT22;31779;49.124;19.190;2022-07-29T02:38:38;14.70;99.90
46041;DHT22;31779;49.124;19.190;2022-07-29T02:41:23;14.60;99.90
46041;DHT22;31779;49.124;19.190;2022-07-29T02:43:53;14.70;99.90
46041;DHT22;31779;49.124;19.190;2022-07-29T02:46:32;14.70;99.90
46041;DHT22;31779;49.124;19.190;2022-07-29T02:49:18;14.60;99.90
46041;DHT22;31779;49.124;19.190;2022-07-29T02:51:51;14.70;99.90
46041;DHT22;31779;49.124;19.190;2022-07-29T02:54:22;14.70;99.90
46041;DHT22;31779;49.124;19.190;2022-07-29T02:56:51;14.60;99.90
46041;DHT22;31779;49.124;19.190;2022-07-29T02:59:22;14.40;99.90
46041;DHT22;31779;49.124;19.190;2022-07-29T03:01:50;14.40;99.90
46041;DHT22;31779;49.124;19.190;2022-07-29T03:04:18;14.40;99.90
46041;DHT22;31779;49.124;19.190;2022-07-29T03:06:47;14.30;99.90
46041;DHT22;31779;49.124;19.190;2022-07-29T03:09:16;14.30;99.90
46041;DHT22;31779;49.124;19.190;2022-07-29T03:11:44;14.30;99.90
46041;DHT22;31779;49.124;19.190;2022-07-29T03:14:17;14.30;99.90
46041;DHT22;31779;49.124;19.190;2022-07-29T03:16:45;14.20;99.90
46041;DHT22;31779;49.124;19.190;2022-07-29T03:19:13;14.20;99.90
46041;DHT22;31779;49.124;19.190;2022-07-29T03:21:41;14.10;99.90
46041;DHT22;31779;49.124;19.190;2022-07-29T03:24:08;14.00;99.90
46041;DHT22;31779;49.124;19.190;2022-07-29T03:26:37;14.00;99.90
46041;DHT22;31779;49.124;19.190;2022-07-29T03:29:04;14.10;99.90
46041;DHT22;31779;49.124;19.190;2022-07-29T03:31:33;14.00;99.90
46041;DHT22;31779;49.124;19.190;2022-07-29T03:34:02;14.00;99.90
46041;DHT22;31779;49.124;19.190;2022-07-29T03:36:29;14.00;99.90
46041;DHT22;31779;49.124;19.190;2022-07-29T03:38:57;14.00;99.90
46041;DHT22;31779;49.124;19.190;2022-07-29T03:41:25;13.90;99.90
46041;DHT22;31779;49.124;19.190;2022-07-29T03:43:52;13.90;99.90
46041;DHT22;31779;49.124;19.190;2022-07-29T03:46:20;13.90;99.90
46041;DHT22;31779;49.124;19.190;2022-07-29T03:48:50;13.90;99.90
46041;DHT22;31779;49.124;19.190;2022-07-29T03:51:20;13.90;99.90
46041;DHT22;31779;49.124;19.190;2022-07-29T03:54:01;13.90;99.90
46041;DHT22;31779;49.124;19.190;2022-07-29T03:56:37;13.90;99.90
46041;DHT22;31779;49.124;19.190;2022-07-29T03:59:06;13.80;99.90
46041;DHT22;31779;49.124;19.190;2022-07-29T04:01:34;13.90;99.90
46041;DHT22;31779;49.124;19.190;2022-07-29T04:04:02;13.90;99.90
46041;DHT22;31779;49.124;19.190;2022-07-29T04:06:37;13.90;99.90
46041;DHT22;31779;49.124;19.190;2022-07-29T04:09:05;14.00;99.90
46041;DHT22;31779;49.124;19.190;2022-07-29T04:11:36;14.00;99.90
46041;DHT22;31779;49.124;19.190;2022-07-29T04:14:24;14.10;99.90
46041;DHT22;31779;49.124;19.190;2022-07-29T04:16:51;14.10;99.90
46041;DHT22;31779;49.124;19.190;2022-07-29T04:19:20;14.20;99.90
46041;DHT22;31779;49.124;19.190;2022-07-29T04:21:47;14.10;99.90
46041;DHT22;31779;49.124;19.190;2022-07-29T04:24:16;14.20;99.90
46041;DHT22;31779;49.124;19.190;2022-07-29T04:26:47;14.20;99.90
46041;DHT22;31779;49.124;19.190;2022-07-29T04:29:15;14.30;99.90
46041;DHT22;31779;49.124;19.190;2022-07-29T04:31:43;14.50;99.90
46041;DHT22;31779;49.124;19.190;2022-07-29T04:34:11;14.70;99.90
46041;DHT22;31779;49.124;19.190;2022-07-29T04:36:39;14.90;99.90
46041;DHT22;31779;49.124;19.190;2022-07-29T04:39:07;15.00;99.90
46041;DHT22;31779;49.124;19.190;2022-07-29T04:41:34;15.10;99.90
46041;DHT22;31779;49.124;19.190;2022-07-29T04:44:02;15.20;99.90
46041;DHT22;31779;49.124;19.190;2022-07-29T04:46:33;15.30;99.90
46041;DHT22;31779;49.124;19.190;2022-07-29T04:49:02;15.50;99.90
46041;DHT22;31779;49.124;19.190;2022-07-29T04:51:30;15.80;99.90
46041;DHT22;31779;49.124;19.190;2022-07-29T04:53:57;16.00;99.90
46041;DHT22;31779;49.124;19.190;2022-07-29T04:56:25;16.10;99.90
46041;DHT22;31779;49.124;19.190;2022-07-29T04:58:53;16.40;99.90
46041;DHT22;31779;49.124;19.190;2022-07-29T05:01:20;16.60;99.90
46041;DHT22;31779;49.124;19.190;2022-07-29T05:03:48;16.70;99.90
46041;DHT22;31779;49.124;19.190;2022-07-29T05:06:15;16.50;99.90
46041;DHT22;31779;49.124;19.190;2022-07-29T05:08:43;16.50;99.90
46041;DHT22;31779;49.124;19.190;2022-07-29T05:11:10;16.60;99.90
46041;DHT22;31779;49.124;19.190;2022-07-29T05:13:44;16.70;99.90
46041;DHT22;31779;49.124;19.190;2022-07-29T05:16:13;16.80;99.90
46041;DHT22;31779;49.124;19.190;2022-07-29T05:18:41;16.70;99.90
46041;DHT22;31779;49.124;19.190;2022-07-29T05:21:09;16.80;99.90
46041;DHT22;31779;49.124;19.190;2022-07-29T05:23:37;17.00;99.90
46041;DHT22;31779;49.124;19.190;2022-07-29T05:26:04;17.20;99.90
46041;DHT22;31779;49.124;19.190;2022-07-29T05:28:33;17.40;99.90
46041;DHT22;31779;49.124;19.190;2022-07-29T05:31:02;17.60;99.90
46041;DHT22;31779;49.124;19.190;2022-07-29T05:33:30;17.90;99.90
46041;DHT22;31779;49.124;19.190;2022-07-29T05:36:03;18.00;99.90
46041;DHT22;31779;49.124;19.190;2022-07-29T05:38:33;18.30;99.90
46041;DHT22;31779;49.124;19.190;2022-07-29T05:41:00;18.50;99.90
46041;DHT22;31779;49.124;19.190;2022-07-29T05:43:28;18.60;99.90
46041;DHT22;31779;49.124;19.190;2022-07-29T05:45:56;18.80;99.90
46041;DHT22;31779;49.124;19.190;2022-07-29T05:48:24;18.90;99.90
46041;DHT22;31779;49.124;19.190;2022-07-29T05:50:51;19.10;99.90
46041;DHT22;31779;49.124;19.190;2022-07-29T05:53:19;19.20;99.90
46041;DHT22;31779;49.124;19.190;2022-07-29T05:55:47;19.20;99.90
46041;DHT22;31779;49.124;19.190;2022-07-29T05:58:15;19.40;99.90
46041;DHT22;31779;49.124;19.190;2022-07-29T06:00:43;19.60;99.90
46041;DHT22;31779;49.124;19.190;2022-07-29T06:03:11;19.70;99.90
46041;DHT22;31779;49.124;19.190;2022-07-29T06:05:39;19.90;99.90
46041;DHT22;31779;49.124;19.190;2022-07-29T06:08:06;19.80;99.90
46041;DHT22;31779;49.124;19.190;2022-07-29T06:10:34;20.10;99.90
46041;DHT22;31779;49.124;19.190;2022-07-29T06:13:02;20.00;99.90
46041;DHT22;31779;49.124;19.190;2022-07-29T06:15:30;20.10;99.90
46041;DHT22;31779;49.124;19.190;2022-07-29T06:17:58;20.20;99.90
46041;DHT22;31779;49.124;19.190;2022-07-29T06:20:30;20.50;99.90
46041;DHT22;31779;49.124;19.190;2022-07-29T06:22:59;20.80;99.90
46041;DHT22;31779;49.124;19.190;2022-07-29T06:25:27;21.00;99.90
46041;DHT22;31779;49.124;19.190;2022-07-29T06:27:58;21.30;99.90
46041;DHT22;31779;49.124;19.190;2022-07-29T06:30:26;21.60;99.90
46041;DHT22;31779;49.124;19.190;2022-07-29T06:32:54;21.90;99.90
46041;DHT22;31779;49.124;19.190;2022-07-29T06:35:22;22.10;99.90
46041;DHT22;31779;49.124;19.190;2022-07-29T06:38:08;22.10;99.90
46041;DHT22;31779;49.124;19.190;2022-07-29T06:40:56;22.00;99.90
46041;DHT22;31779;49.124;19.190;2022-07-29T06:43:35;22.00;99.90
46041;DHT22;31779;49.124;19.190;2022-07-29T06:46:20;21.90;99.90
46041;DHT22;31779;49.124;19.190;2022-07-29T06:48:48;21.70;99.90
46041;DHT22;31779;49.124;19.190;2022-07-29T06:51:16;21.50;99.90
46041;DHT22;31779;49.124;19.190;2022-07-29T06:53:52;21.50;99.90
46041;DHT22;31779;49.124;19.190;2022-07-29T06:56:28;21.70;99.90
46041;DHT22;31779;49.124;19.190;2022-07-29T06:58:56;22.30;99.90
46041;DHT22;31779;49.124;19.190;2022-07-29T07:01:23;22.60;99.90
46041;DHT22;31779;49.124;19.190;2022-07-29T07:03:51;22.80;99.90
46041;DHT22;31779;49.124;19.190;2022-07-29T07:06:19;22.60;99.90
46041;DHT22;31779;49.124;19.190;2022-07-29T07:08:47;22.10;99.90
46041;DHT22;31779;49.124;19.190;2022-07-29T07:11:14;22.10;99.90
46041;DHT22;31779;49.124;19.190;2022-07-29T07:13:43;21.80;99.90
46041;DHT22;31779;49.124;19.190;2022-07-29T07:16:10;22.40;99.90
46041;DHT22;31779;49.124;19.190;2022-07-29T07:18:38;22.40;99.90
46041;DHT22;31779;49.124;19.190;2022-07-29T07:21:06;22.80;99.90
46041;DHT22;31779;49.124;19.190;2022-07-29T07:23:34;23.10;99.90
46041;DHT22;31779;49.124;19.190;2022-07-29T07:26:02;22.80;99.90
46041;DHT22;31779;49.124;19.190;2022-07-29T07:28:30;22.80;99.90
46041;DHT22;31779;49.124;19.190;2022-07-29T07:30:58;23.00;99.90
46041;DHT22;31779;49.124;19.190;2022-07-29T07:33:26;23.30;99.90
46041;DHT22;31779;49.124;19.190;2022-07-29T07:35:54;23.60;99.90
46041;DHT22;31779;49.124;19.190;2022-07-29T07:38:21;24.10;97.90
46041;DHT22;31779;49.124;19.190;2022-07-29T07:40:49;24.00;98.00
46041;DHT22;31779;49.124;19.190;2022-07-29T07:43:17;23.70;99.90
46041;DHT22;31779;49.124;19.190;2022-07-29T07:45:45;23.90;99.90
46041;DHT22;31779;49.124;19.190;2022-07-29T07:48:13;23.90;99.90
46041;DHT22;31779;49.124;19.190;2022-07-29T07:50:41;24.20;99.90
46041;DHT22;31779;49.124;19.190;2022-07-29T07:53:09;24.40;96.80
46041;DHT22;31779;49.124;19.190;2022-07-29T07:55:43;24.30;98.70
46041;DHT22;31779;49.124;19.190;2022-07-29T07:58:30;24.80;97.10
46041;DHT22;31779;49.124;19.190;2022-07-29T08:00:58;25.40;94.50
46041;DHT22;31779;49.124;19.190;2022-07-29T08:03:25;25.50;94.90
46041;DHT22;31779;49.124;19.190;2022-07-29T08:05:53;25.40;94.70
46041;DHT22;31779;49.124;19.190;2022-07-29T08:08:21;25.60;92.60
46041;DHT22;31779;49.124;19.190;2022-07-29T08:10:50;25.90;92.00
46041;DHT22;31779;49.124;19.190;2022-07-29T08:13:23;26.40;90.70
46041;DHT22;31779;49.124;19.190;2022-07-29T08:15:52;26.20;91.20
46041;DHT22;31779;49.124;19.190;2022-07-29T08:18:38;26.50;92.80
46041;DHT22;31779;49.124;19.190;2022-07-29T08:21:06;26.50;93.50
46041;DHT22;31779;49.124;19.190;2022-07-29T08:23:34;26.60;90.40
46041;DHT22;31779;49.124;19.190;2022-07-29T08:26:20;26.80;90.00
46041;DHT22;31779;49.124;19.190;2022-07-29T08:28:49;27.00;88.40
46041;DHT22;31779;49.124;19.190;2022-07-29T08:31:18;27.00;91.50
46041;DHT22;31779;49.124;19.190;2022-07-29T08:33:46;27.30;83.40
46041;DHT22;31779;49.124;19.190;2022-07-29T08:36:13;26.70;86.40
46041;DHT22;31779;49.124;19.190;2022-07-29T08:38:41;27.10;93.30
46041;DHT22;31779;49.124;19.190;2022-07-29T08:41:09;29.50;89.30
46041;DHT22;31779;49.124;19.190;2022-07-29T08:43:36;34.80;70.90
46041;DHT22;31779;49.124;19.190;2022-07-29T08:46:05;38.90;54.90
46041;DHT22;31779;49.124;19.190;2022-07-29T08:48:33;40.40;48.50
46041;DHT22;31779;49.124;19.190;2022-07-29T08:51:02;43.10;47.00
46041;DHT22;31779;49.124;19.190;2022-07-29T08:53:30;45.10;40.00
46041;DHT22;31779;49.124;19.190;2022-07-29T08:56:00;43.50;39.20
46041;DHT22;31779;49.124;19.190;2022-07-29T08:58:31;42.70;38.20
46041;DHT22;31779;49.124;19.190;2022-07-29T09:01:03;43.90;38.60
46041;DHT22;31779;49.124;19.190;2022-07-29T09:03:34;44.30;36.70
46041;DHT22;31779;49.124;19.190;2022-07-29T09:06:04;44.70;38.30
46041;DHT22;31779;49.124;19.190;2022-07-29T09:08:32;44.30;38.10
46041;DHT22;31779;49.124;19.190;2022-07-29T09:11:00;47.80;36.90
46041;DHT22;31779;49.124;19.190;2022-07-29T09:13:31;47.00;34.80
46041;DHT22;31779;49.124;19.190;2022-07-29T09:15:59;45.30;36.40
46041;DHT22;31779;49.124;19.190;2022-07-29T09:18:33;49.40;38.20
46041;DHT22;31779;49.124;19.190;2022-07-29T09:21:04;45.20;37.10
46041;DHT22;31779;49.124;19.190;2022-07-29T09:26:32;49.20;34.80
46041;DHT22;31779;49.124;19.190;2022-07-29T09:29:07;50.00;33.50
46041;DHT22;31779;49.124;19.190;2022-07-29T09:31:36;50.50;32.20
46041;DHT22;31779;49.124;19.190;2022-07-29T09:34:05;50.60;33.20
46041;DHT22;31779;49.124;19.190;2022-07-29T09:36:43;52.20;33.70
46041;DHT22;31779;49.124;19.190;2022-07-29T09:39:11;50.90;32.50
46041;DHT22;31779;49.124;19.190;2022-07-29T09:41:46;49.30;34.30
46041;DHT22;31779;49.124;19.190;2022-07-29T09:44:14;48.70;35.90
46041;DHT22;31779;49.124;19.190;2022-07-29T09:47:02;43.10;38.10
46041;DHT22;31779;49.124;19.190;2022-07-29T09:49:34;42.50;38.00
46041;DHT22;31779;49.124;19.190;2022-07-29T09:52:08;40.30;40.10
46041;DHT22;31779;49.124;19.190;2022-07-29T09:54:37;41.80;39.40
46041;DHT22;31779;49.124;19.190;2022-07-29T09:57:05;42.20;37.90
46041;DHT22;31779;49.124;19.190;2022-07-29T09:59:33;39.60;38.30
46041;DHT22;31779;49.124;19.190;2022-07-29T10:02:01;39.50;42.40
46041;DHT22;31779;49.124;19.190;2022-07-29T10:04:41;37.90;43.50
46041;DHT22;31779;49.124;19.190;2022-07-29T10:07:09;38.10;43.90
46041;DHT22;31779;49.124;19.190;2022-07-29T10:09:37;36.80;45.60
46041;DHT22;31779;49.124;19.190;2022-07-29T10:12:06;37.40;40.20
46041;DHT22;31779;49.124;19.190;2022-07-29T10:14:34;35.90;43.10
46041;DHT22;31779;49.124;19.190;2022-07-29T10:17:07;36.40;47.20
46041;DHT22;31779;49.124;19.190;2022-07-29T10:19:35;36.50;42.10
46041;DHT22;31779;49.124;19.190;2022-07-29T10:22:07;34.50;44.20
46041;DHT22;31779;49.124;19.190;2022-07-29T10:24:37;34.30;44.20
46041;DHT22;31779;49.124;19.190;2022-07-29T10:27:06;33.90;45.30
46041;DHT22;31779;49.124;19.190;2022-07-29T10:29:34;34.40;46.50
46041;DHT22;31779;49.124;19.190;2022-07-29T10:38:04;35.60;49.30
46041;DHT22;31779;49.124;19.190;2022-07-29T10:40:07;34.30;45.50
46041;DHT22;31779;49.124;19.190;2022-07-29T10:42:56;34.50;45.80
46041;DHT22;31779;49.124;19.190;2022-07-29T10:45:29;34.40;44.30
46041;DHT22;31779;49.124;19.190;2022-07-29T10:48:04;33.40;43.20
46041;DHT22;31779;49.124;19.190;2022-07-29T10:50:53;33.40;45.20
46041;DHT22;31779;49.124;19.190;2022-07-29T10:53:24;32.50;46.40
46041;DHT22;31779;49.124;19.190;2022-07-29T10:59:25;34.00;48.10
46041;DHT22;31779;49.124;19.190;2022-07-29T11:01:47;33.50;49.30
46041;DHT22;31779;49.124;19.190;2022-07-29T11:07:13;32.70;44.80
46041;DHT22;31779;49.124;19.190;2022-07-29T11:09:43;32.90;47.90
46041;DHT22;31779;49.124;19.190;2022-07-29T11:15:03;31.90;45.90
46041;DHT22;31779;49.124;19.190;2022-07-29T11:18:17;31.80;49.90
46041;DHT22;31779;49.124;19.190;2022-07-29T11:20:35;31.90;47.70
46041;DHT22;31779;49.124;19.190;2022-07-29T11:23:23;31.40;47.00
46041;DHT22;31779;49.124;19.190;2022-07-29T11:29:01;30.90;52.90
46041;DHT22;31779;49.124;19.190;2022-07-29T11:31:37;31.00;51.30
46041;DHT22;31779;49.124;19.190;2022-07-29T11:39:33;30.30;52.90
46041;DHT22;31779;49.124;19.190;2022-07-29T11:47:30;29.70;57.40
46041;DHT22;31779;49.124;19.190;2022-07-29T11:50:09;29.80;57.40
46041;DHT22;31779;49.124;19.190;2022-07-29T11:52:39;30.00;57.10
46041;DHT22;31779;49.124;19.190;2022-07-29T11:55:17;30.40;54.70
46041;DHT22;31779;49.124;19.190;2022-07-29T11:57:49;30.20;54.00
46041;DHT22;31779;49.124;19.190;2022-07-29T12:00:39;30.50;55.00
46041;DHT22;31779;49.124;19.190;2022-07-29T12:03:08;30.50;55.00
46041;DHT22;31779;49.124;19.190;2022-07-29T12:05:41;30.10;51.70
46041;DHT22;31779;49.124;19.190;2022-07-29T12:08:19;29.60;52.30
46041;DHT22;31779;49.124;19.190;2022-07-29T12:10:47;29.40;51.60
46041;DHT22;31779;49.124;19.190;2022-07-29T12:13:16;29.50;52.30
46041;DHT22;31779;49.124;19.190;2022-07-29T12:15:53;29.80;56.50
46041;DHT22;31779;49.124;19.190;2022-07-29T12:18:26;29.90;49.70
46041;DHT22;31779;49.124;19.190;2022-07-29T12:21:01;29.90;51.30
46041;DHT22;31779;49.124;19.190;2022-07-29T12:23:32;29.70;55.60
46041;DHT22;31779;49.124;19.190;2022-07-29T12:26:05;29.90;58.90
46041;DHT22;31779;49.124;19.190;2022-07-29T12:28:37;29.60;53.60
46041;DHT22;31779;49.124;19.190;2022-07-29T12:31:08;29.50;51.50
46041;DHT22;31779;49.124;19.190;2022-07-29T12:33:40;29.10;54.20
46041;DHT22;31779;49.124;19.190;2022-07-29T12:36:08;28.90;56.10
46041;DHT22;31779;49.124;19.190;2022-07-29T12:38:43;28.60;56.30
46041;DHT22;31779;49.124;19.190;2022-07-29T12:41:12;28.00;54.20
46041;DHT22;31779;49.124;19.190;2022-07-29T12:43:51;27.60;56.80
46041;DHT22;31779;49.124;19.190;2022-07-29T12:46:19;27.00;66.10
46041;DHT22;31779;49.124;19.190;2022-07-29T12:48:50;27.00;64.20
46041;DHT22;31779;49.124;19.190;2022-07-29T12:51:18;26.80;63.60
46041;DHT22;31779;49.124;19.190;2022-07-29T12:54:05;26.20;58.10
46041;DHT22;31779;49.124;19.190;2022-07-29T12:56:34;25.30;58.50
46041;DHT22;31779;49.124;19.190;2022-07-29T12:59:18;24.60;59.20
46041;DHT22;31779;49.124;19.190;2022-07-29T13:01:46;24.10;63.30
46041;DHT22;31779;49.124;19.190;2022-07-29T13:07:00;23.30;76.60
46041;DHT22;31779;49.124;19.190;2022-07-29T13:09:38;23.10;81.70
46041;DHT22;31779;49.124;19.190;2022-07-29T13:12:07;22.80;84.20
46041;DHT22;31779;49.124;19.190;2022-07-29T13:14:36;22.30;87.70
46041;DHT22;31779;49.124;19.190;2022-07-29T13:17:07;21.30;91.10
46041;DHT22;31779;49.124;19.190;2022-07-29T13:22:05;21.20;99.90
46041;DHT22;31779;49.124;19.190;2022-07-29T13:24:33;21.10;99.90
46041;DHT22;31779;49.124;19.190;2022-07-29T13:27:02;21.10;99.90
46041;DHT22;31779;49.124;19.190;2022-07-29T13:29:32;21.10;99.90
46041;DHT22;31779;49.124;19.190;2022-07-29T13:31:59;21.40;99.90
46041;DHT22;31779;49.124;19.190;2022-07-29T13:34:28;22.00;99.90
46041;DHT22;31779;49.124;19.190;2022-07-29T13:36:56;22.80;99.90
46041;DHT22;31779;49.124;19.190;2022-07-29T13:39:24;22.40;99.90
46041;DHT22;31779;49.124;19.190;2022-07-29T13:41:52;22.20;99.90
46041;DHT22;31779;49.124;19.190;2022-07-29T13:44:22;22.40;99.90
46041;DHT22;31779;49.124;19.190;2022-07-29T13:46:50;22.80;99.90
46041;DHT22;31779;49.124;19.190;2022-07-29T13:49:18;23.50;99.90
46041;DHT22;31779;49.124;19.190;2022-07-29T13:51:46;23.80;99.90
46041;DHT22;31779;49.124;19.190;2022-07-29T13:54:13;24.10;99.90
46041;DHT22;31779;49.124;19.190;2022-07-29T13:56:41;24.50;99.90
46041;DHT22;31779;49.124;19.190;2022-07-29T13:59:12;24.30;99.90
46041;DHT22;31779;49.124;19.190;2022-07-29T14:01:40;23.40;99.90
46041;DHT22;31779;49.124;19.190;2022-07-29T14:04:11;23.00;99.90
46041;DHT22;31779;49.124;19.190;2022-07-29T14:06:39;22.90;99.90
46041;DHT22;31779;49.124;19.190;2022-07-29T14:09:07;23.30;99.90
46041;DHT22;31779;49.124;19.190;2022-07-29T14:11:36;23.20;99.90
46041;DHT22;31779;49.124;19.190;2022-07-29T14:14:05;23.60;99.90
46041;DHT22;31779;49.124;19.190;2022-07-29T14:16:34;23.90;99.90
46041;DHT22;31779;49.124;19.190;2022-07-29T14:19:08;23.80;99.90
46041;DHT22;31779;49.124;19.190;2022-07-29T14:21:36;23.20;99.90
46041;DHT22;31779;49.124;19.190;2022-07-29T14:24:05;23.00;99.90
46041;DHT22;31779;49.124;19.190;2022-07-29T14:26:44;22.50;99.90
46041;DHT22;31779;49.124;19.190;2022-07-29T14:29:12;22.40;99.90
46041;DHT22;31779;49.124;19.190;2022-07-29T14:31:40;22.40;99.90
46041;DHT22;31779;49.124;19.190;2022-07-29T14:34:08;21.60;99.90
46041;DHT22;31779;49.124;19.190;2022-07-29T14:36:35;21.30;99.90
46041;DHT22;31779;49.124;19.190;2022-07-29T14:39:03;21.80;99.90
46041;DHT22;31779;49.124;19.190;2022-07-29T14:41:31;22.00;99.90
46041;DHT22;31779;49.124;19.190;2022-07-29T14:44:00;21.80;99.90
46041;DHT22;31779;49.124;19.190;2022-07-29T14:46:28;21.90;99.90
46041;DHT22;31779;49.124;19.190;2022-07-29T14:48:55;22.10;99.90
46041;DHT22;31779;49.124;19.190;2022-07-29T14:51:23;22.10;99.90
46041;DHT22;31779;49.124;19.190;2022-07-29T14:53:58;21.80;99.90
46041;DHT22;31779;49.124;19.190;2022-07-29T14:56:26;21.70;99.90
46041;DHT22;31779;49.124;19.190;2022-07-29T14:59:03;21.50;99.90
46041;DHT22;31779;49.124;19.190;2022-07-29T15:01:31;21.30;99.90
46041;DHT22;31779;49.124;19.190;2022-07-29T15:03:59;21.00;99.90
46041;DHT22;31779;49.124;19.190;2022-07-29T15:06:27;20.70;99.90
46041;DHT22;31779;49.124;19.190;2022-07-29T15:08:55;20.60;99.90
46041;DHT22;31779;49.124;19.190;2022-07-29T15:11:22;20.50;99.90
46041;DHT22;31779;49.124;19.190;2022-07-29T15:13:50;20.20;99.90
46041;DHT22;31779;49.124;19.190;2022-07-29T15:16:18;20.10;99.90
46041;DHT22;31779;49.124;19.190;2022-07-29T15:18:46;19.80;99.90
46041;DHT22;31779;49.124;19.190;2022-07-29T15:21:13;19.60;99.90
46041;DHT22;31779;49.124;19.190;2022-07-29T15:23:42;19.60;99.90
46041;DHT22;31779;49.124;19.190;2022-07-29T15:26:10;19.50;99.90
46041;DHT22;31779;49.124;19.190;2022-07-29T15:28:37;19.40;99.90
46041;DHT22;31779;49.124;19.190;2022-07-29T15:31:05;19.40;99.90
46041;DHT22;31779;49.124;19.190;2022-07-29T15:33:32;19.30;99.90
46041;DHT22;31779;49.124;19.190;2022-07-29T15:36:00;19.30;99.90
46041;DHT22;31779;49.124;19.190;2022-07-29T15:38:28;19.40;99.90
46041;DHT22;31779;49.124;19.190;2022-07-29T15:40:56;19.40;99.90
46041;DHT22;31779;49.124;19.190;2022-07-29T15:43:23;19.60;99.90
46041;DHT22;31779;49.124;19.190;2022-07-29T15:45:52;19.70;99.90
46041;DHT22;31779;49.124;19.190;2022-07-29T15:48:39;19.70;99.90
46041;DHT22;31779;49.124;19.190;2022-07-29T15:51:06;19.20;99.90
46041;DHT22;31779;49.124;19.190;2022-07-29T15:53:34;19.20;99.90
46041;DHT22;31779;49.124;19.190;2022-07-29T15:56:02;19.40;99.90
46041;DHT22;31779;49.124;19.190;2022-07-29T15:58:29;19.40;99.90
46041;DHT22;31779;49.124;19.190;2022-07-29T16:00:57;19.30;99.90
46041;DHT22;31779;49.124;19.190;2022-07-29T16:03:25;19.40;99.90
46041;DHT22;31779;49.124;19.190;2022-07-29T16:05:53;19.30;99.90
46041;DHT22;31779;49.124;19.190;2022-07-29T16:08:21;19.20;99.90
46041;DHT22;31779;49.124;19.190;2022-07-29T16:10:48;19.00;99.90
46041;DHT22;31779;49.124;19.190;2022-07-29T16:13:16;19.00;99.90
46041;DHT22;31779;49.124;19.190;2022-07-29T16:15:46;19.20;99.90
46041;DHT22;31779;49.124;19.190;2022-07-29T16:18:29;19.30;99.90
46041;DHT22;31779;49.124;19.190;2022-07-29T16:20:57;19.10;99.90